ADDS METAR Data INFO
IDs: Format: Raw Decoded Include TAF

Data at: 1119 UTC 21 Feb 2018

PAHX 201506Z AUTO 20011KT 7SM FEW005 BKN024 M02/M02 A3044 RMK AO2 FZRANO
PAHX 201456Z AUTO 20011KT 7SM FEW005 SCT026 M01/M02 A3045 RMK AO2 SLP311 T10111017 51023 FZRANO
PAHX 201441Z AUTO 21012KT 7SM FEW005 SCT024 BKN032 M01/M02 A3045 RMK AO2 FZRANO
PAHX 201412Z AUTO 21012KT 7SM SCT005 OVC025 M01/M02 A3045 RMK AO2 FZRANO
PAHX 201356Z AUTO 21011KT 7SM BKN005 BKN021 M01/M01 A3044 RMK AO2 SLP309 T10061011 FZRANO
PAHX 201310Z AUTO 20009KT 7SM BKN007 BKN029 OVC035 00/M01 A3041 RMK AO2 FZRANO
PAHX 201256Z AUTO 20009KT 7SM FEW007 OVC033 00/M01 A3040 RMK AO2 SLP297 T00001011 FZRANO
PAHX 201238Z AUTO 20008KT 8SM OVC031 00/M01 A3040 RMK AO2 FZRANO
PAHX 201156Z AUTO 21012KT 8SM OVC029 01/M01 A3038 RMK AO2 SLP288 60000 70002 T00061006 10011 20006 53028 FZRANO
PAHX 201106Z AUTO 21010KT 9SM SCT007 SCT012 OVC019 01/00 A3034 RMK AO2 FZRANO
PAHX 201053Z AUTO 21009KT 9SM BKN007 BKN014 OVC019 01/00 A3033 RMK AO2 FZRANO
PAHX 201036Z AUTO 22010KT 10SM FEW007 OVC019 01/01 A3032 RMK AO2 FZRANO
PAHX 200956Z AUTO 22012KT 10SM BKN007 OVC012 01/01 A3030 RMK AO2 CIG 006V010 SLP260 T00110006 FZRANO
PAHX 200931Z AUTO 21012KT 10SM OVC012 01/01 A3027 RMK AO2 FZRANO
PAHX 200856Z AUTO 21013KT 10SM OVC006 01/01 A3025 RMK AO2 RAE04 SLP245 P0000 60000 T00110006 400221033 53027 FZRANO
PAHX 200756Z AUTO 20012G17KT 10SM -RA OVC006 01/01 A3022 RMK AO2 UPE37RAB37 SLP234 P0000 T00110006 FZRANO
PAHX 200656Z AUTO 20013G17KT 4SM UP BR OVC006 01/00 A3019 RMK AO2 RAB0558E13UPB13SNE0558 CIG 005V009 SLP224 P0000 T00110000 FZRANO
PAHX 200556Z AUTO 20011KT 9SM -SN BKN008 OVC015 01/01 A3017 RMK AO2 RAE34SNB34 SLP217 P0001 60002 T00110006 10022 20006 53001 FZRANO
PAHX 200456Z AUTO 19013G18KT 10SM -RA BKN008 BKN026 OVC034 01/01 A3016 RMK AO2 UPB17E21RAB21SNE17 CIG 007V013 SLP214 P0001 T00110006 FZRANO
PAHX 200452Z AUTO 20013G18KT 10SM -RA BKN008 BKN017 OVC026 02/01 A3016 RMK AO2 UPB17E21RAB21SNE17 CIG 007V013 P0001 FZRANO
PAHX 200430Z AUTO 20016G23KT 10SM -RA SCT010 BKN018 OVC060 02/01 A3015 RMK AO2 UPB17E21RAB21SNE17 P0000 FZRANO
PAHX 200356Z AUTO 18006KT 5SM -SN BR BKN010 OVC015 01/M01 A3015 RMK AO2 CIG 009V014 SLP211 P0000 T00061006 FZRANO
PAHX 200349Z AUTO 17005KT 4SM -SN BR BKN012 OVC019 01/M01 A3015 RMK AO2 P0000 FZRANO
PAHX 200342Z AUTO 18005KT 2 1/2SM -SN BR BKN014 OVC023 01/M01 A3015 RMK AO2 VIS 1 1/2V5 P0000 FZRANO
PAHX 200323Z AUTO 18006KT 2SM -SN BR FEW019 OVC025 01/M01 A3016 RMK AO2 P0000 FZRANO
PAHX 200301Z AUTO 17006KT 3SM -SN BR FEW016 BKN027 OVC036 01/M01 A3016 RMK AO2 P0000 FZRANO
PAHX 200256Z AUTO 18007KT 1 3/4SM -SN BR FEW016 BKN027 OVC036 01/M01 A3017 RMK AO2 RAB31E40UPB40E46SNB46 SLP216 P0000 60000 T00061006 53003 FZRANO
PAHX 200246Z AUTO 21009KT 1 3/4SM -SN BR SCT014 BKN020 OVC036 01/M01 A3018 RMK AO2 VIS 1 1/4V4 RAB31E40UPB40E46SNB46 P0000 FZRANO
PAHX 200236Z AUTO 23011G15KT 2SM -RA BR FEW020 OVC036 01/M01 A3018 RMK AO2 VIS 1V5 RAB31 P0000 FZRANO
PAHX 200156Z AUTO 19004KT 10SM SCT049 OVC085 02/M03 A3016 RMK AO2 SLP214 T00221028 FZRANO
PAHX 200056Z AUTO 16005KT 10SM OVC100 02/M03 A3015 RMK AO2 SLP210 T00171028 FZRANO
PAHX 192356Z AUTO 15008KT 10SM OVC095 02/M03 A3016 RMK AO2 RAB2258E07UPB07E44 SLP213 P0000 60000 T00171028 10017 21022 57009 FZRANO